Lincoln City, Oregon
Current Conditions -  °F | °C
As of 11:15 AM on Thursday 30 Oct 2014 (Local Time) from KONP Reporting Station
Broken Clouds Broken Clouds  
Wind Chill: 15°   Ceiling: 2400
Heat Index: 15°   Visibility: 10mi
Dew Point: 15°   Wind: 5mph
Humidity: 100%   Direction: 160°SSE
Pressure: 29.86"   Gusts: NA
Location:  44.93°N, 124.01°W
Report Text: KONP 301815Z AUTO 16004KT 10SM BKN024 15/15 A2986 RMK AO2
Loading
Personal Weather Stations






























Interactive Weather Map
Tropical Storm Tracking
New forecast layout! Learn more

10-Day Weather Forecast

Advertisements
Track Severe Weather on mobile